sensor_id;sensor_type;location;lat;lon;timestamp;pressure;altitude;pressure_sealevel;temperature;humidity
77288;BME280;66345;42.694;23.346;2023-09-30T00:00:26;95945.50;;;16.42;57.98
77288;BME280;66345;42.694;23.346;2023-09-30T00:02:51;95944.53;;;16.29;57.42
77288;BME280;66345;42.694;23.346;2023-09-30T00:05:17;95940.66;;;16.25;57.57
77288;BME280;66345;42.694;23.346;2023-09-30T00:07:47;95935.28;;;16.25;57.67
77288;BME280;66345;42.694;23.346;2023-09-30T00:10:13;95945.34;;;16.30;57.69
77288;BME280;66345;42.694;23.346;2023-09-30T00:12:40;95946.34;;;16.35;57.36
77288;BME280;66345;42.694;23.346;2023-09-30T00:15:05;95934.03;;;16.28;57.76
77288;BME280;66345;42.694;23.346;2023-09-30T00:17:31;95946.19;;;16.24;57.79
77288;BME280;66345;42.694;23.346;2023-09-30T00:19:56;95938.69;;;16.39;57.48
77288;BME280;66345;42.694;23.346;2023-09-30T00:22:22;95939.34;;;16.41;57.28
77288;BME280;66345;42.694;23.346;2023-09-30T00:24:47;95936.72;;;16.28;57.67
77288;BME280;66345;42.694;23.346;2023-09-30T00:27:13;95932.28;;;16.47;56.68
77288;BME280;66345;42.694;23.346;2023-09-30T00:29:38;95928.41;;;16.43;57.00
77288;BME280;66345;42.694;23.346;2023-09-30T00:32:04;95923.53;;;16.26;57.50
77288;BME280;66345;42.694;23.346;2023-09-30T00:34:38;95937.56;;;16.22;58.47
77288;BME280;66345;42.694;23.346;2023-09-30T00:37:05;95931.28;;;15.90;59.69
77288;BME280;66345;42.694;23.346;2023-09-30T00:39:32;95928.63;;;15.90;60.89
77288;BME280;66345;42.694;23.346;2023-09-30T00:41:58;95942.38;;;15.93;60.14
77288;BME280;66345;42.694;23.346;2023-09-30T00:44:25;95939.31;;;15.90;59.84
77288;BME280;66345;42.694;23.346;2023-09-30T00:46:52;95934.75;;;16.03;59.41
77288;BME280;66345;42.694;23.346;2023-09-30T00:49:19;95932.22;;;16.15;58.67
77288;BME280;66345;42.694;23.346;2023-09-30T00:51:46;95933.22;;;16.27;58.25
77288;BME280;66345;42.694;23.346;2023-09-30T00:54:12;95930.84;;;16.44;58.19
77288;BME280;66345;42.694;23.346;2023-09-30T00:56:43;95918.94;;;16.40;58.29
77288;BME280;66345;42.694;23.346;2023-09-30T00:59:10;95928.47;;;16.29;59.12
77288;BME280;66345;42.694;23.346;2023-09-30T01:01:35;95929.94;;;16.25;59.34
77288;BME280;66345;42.694;23.346;2023-09-30T01:04:01;95925.22;;;16.14;59.75
77288;BME280;66345;42.694;23.346;2023-09-30T01:06:27;95929.41;;;16.03;60.22
77288;BME280;66345;42.694;23.346;2023-09-30T01:08:53;95925.50;;;15.99;60.38
77288;BME280;66345;42.694;23.346;2023-09-30T01:11:18;95919.91;;;16.01;60.31
77288;BME280;66345;42.694;23.346;2023-09-30T01:13:44;95915.34;;;16.15;60.29
77288;BME280;66345;42.694;23.346;2023-09-30T01:16:10;95930.72;;;16.32;59.26
77288;BME280;66345;42.694;23.346;2023-09-30T01:18:37;95917.75;;;16.29;59.51
77288;BME280;66345;42.694;23.346;2023-09-30T01:21:04;95922.34;;;16.09;59.90
77288;BME280;66345;42.694;23.346;2023-09-30T01:23:33;95926.75;;;15.97;60.97
77288;BME280;66345;42.694;23.346;2023-09-30T01:26:10;95916.69;;;15.79;61.96
77288;BME280;66345;42.694;23.346;2023-09-30T01:28:37;95928.63;;;15.90;61.54
77288;BME280;66345;42.694;23.346;2023-09-30T01:31:03;95930.38;;;16.09;60.50
77288;BME280;66345;42.694;23.346;2023-09-30T01:33:29;95932.56;;;16.32;59.15
77288;BME280;66345;42.694;23.346;2023-09-30T01:35:55;95917.78;;;16.16;58.79
77288;BME280;66345;42.694;23.346;2023-09-30T01:38:20;95926.84;;;16.22;59.53
77288;BME280;66345;42.694;23.346;2023-09-30T01:40:47;95917.91;;;16.41;58.69
77288;BME280;66345;42.694;23.346;2023-09-30T01:43:13;95914.16;;;16.49;58.83
77288;BME280;66345;42.694;23.346;2023-09-30T01:45:39;95922.78;;;16.51;58.93
77288;BME280;66345;42.694;23.346;2023-09-30T01:48:05;95917.13;;;16.72;58.36
77288;BME280;66345;42.694;23.346;2023-09-30T01:50:31;95920.84;;;16.64;58.05
77288;BME280;66345;42.694;23.346;2023-09-30T01:52:56;95918.44;;;16.56;58.76
77288;BME280;66345;42.694;23.346;2023-09-30T01:55:22;95913.44;;;16.60;58.50
77288;BME280;66345;42.694;23.346;2023-09-30T01:57:48;95917.44;;;16.51;58.93
77288;BME280;66345;42.694;23.346;2023-09-30T02:00:13;95909.75;;;16.54;58.31
77288;BME280;66345;42.694;23.346;2023-09-30T02:02:39;95914.56;;;16.46;57.53
77288;BME280;66345;42.694;23.346;2023-09-30T02:05:05;95916.88;;;16.42;57.83
77288;BME280;66345;42.694;23.346;2023-09-30T02:07:33;95912.00;;;16.26;58.00
77288;BME280;66345;42.694;23.346;2023-09-30T02:09:59;95915.75;;;16.18;57.83
77288;BME280;66345;42.694;23.346;2023-09-30T02:12:26;95916.56;;;16.19;57.80
77288;BME280;66345;42.694;23.346;2023-09-30T02:14:52;95916.63;;;15.99;58.39
77288;BME280;66345;42.694;23.346;2023-09-30T02:17:18;95919.56;;;15.91;58.40
77288;BME280;66345;42.694;23.346;2023-09-30T02:19:43;95911.31;;;15.86;58.81
77288;BME280;66345;42.694;23.346;2023-09-30T02:22:09;95924.91;;;15.91;58.87
77288;BME280;66345;42.694;23.346;2023-09-30T02:24:34;95920.84;;;15.68;58.99
77288;BME280;66345;42.694;23.346;2023-09-30T02:27:00;95924.56;;;15.54;59.57
77288;BME280;66345;42.694;23.346;2023-09-30T02:29:25;95927.28;;;15.27;58.93
77288;BME280;66345;42.694;23.346;2023-09-30T02:31:51;95924.59;;;15.27;58.89
77288;BME280;66345;42.694;23.346;2023-09-30T02:34:16;95913.69;;;15.29;58.65
77288;BME280;66345;42.694;23.346;2023-09-30T02:36:42;95922.31;;;15.24;58.32
77288;BME280;66345;42.694;23.346;2023-09-30T02:39:08;95919.25;;;15.14;58.06
77288;BME280;66345;42.694;23.346;2023-09-30T02:41:36;95929.13;;;15.20;58.14
77288;BME280;66345;42.694;23.346;2023-09-30T02:44:03;95920.91;;;15.15;58.04
77288;BME280;66345;42.694;23.346;2023-09-30T02:46:29;95915.13;;;15.18;58.19
77288;BME280;66345;42.694;23.346;2023-09-30T02:48:54;95924.59;;;15.14;58.36
77288;BME280;66345;42.694;23.346;2023-09-30T02:51:20;95918.66;;;14.99;59.13
77288;BME280;66345;42.694;23.346;2023-09-30T02:53:45;95917.41;;;15.02;58.72
77288;BME280;66345;42.694;23.346;2023-09-30T02:56:13;95926.88;;;15.04;59.51
77288;BME280;66345;42.694;23.346;2023-09-30T02:58:39;95922.94;;;14.67;61.00
77288;BME280;66345;42.694;23.346;2023-09-30T03:01:05;95920.44;;;14.46;61.77
77288;BME280;66345;42.694;23.346;2023-09-30T03:03:32;95931.63;;;14.28;62.92
77288;BME280;66345;42.694;23.346;2023-09-30T03:05:59;95921.13;;;14.20;63.56
77288;BME280;66345;42.694;23.346;2023-09-30T03:08:26;95919.13;;;14.35;62.84
77288;BME280;66345;42.694;23.346;2023-09-30T03:10:51;95924.09;;;14.38;62.32
77288;BME280;66345;42.694;23.346;2023-09-30T03:13:18;95923.81;;;14.26;63.24
77288;BME280;66345;42.694;23.346;2023-09-30T03:15:45;95918.53;;;14.39;62.28
77288;BME280;66345;42.694;23.346;2023-09-30T03:18:11;95925.38;;;14.55;61.52
77288;BME280;66345;42.694;23.346;2023-09-30T03:20:39;95925.78;;;14.52;61.72
77288;BME280;66345;42.694;23.346;2023-09-30T03:23:06;95929.97;;;14.20;63.61
77288;BME280;66345;42.694;23.346;2023-09-30T03:25:31;95928.97;;;14.34;62.93
77288;BME280;66345;42.694;23.346;2023-09-30T03:27:57;95924.25;;;14.30;63.04
77288;BME280;66345;42.694;23.346;2023-09-30T03:30:23;95927.13;;;14.22;63.69
77288;BME280;66345;42.694;23.346;2023-09-30T03:32:49;95928.50;;;14.11;64.07
77288;BME280;66345;42.694;23.346;2023-09-30T03:35:15;95923.47;;;13.88;65.06
77288;BME280;66345;42.694;23.346;2023-09-30T03:37:46;95916.78;;;14.12;64.75
77288;BME280;66345;42.694;23.346;2023-09-30T03:40:12;95912.56;;;14.31;63.49
77288;BME280;66345;42.694;23.346;2023-09-30T03:42:46;95913.31;;;14.11;64.18
77288;BME280;66345;42.694;23.346;2023-09-30T03:45:14;95915.44;;;14.29;63.79
77288;BME280;66345;42.694;23.346;2023-09-30T03:47:41;95923.97;;;14.11;64.64
77288;BME280;66345;42.694;23.346;2023-09-30T03:50:07;95915.22;;;14.31;63.98
77288;BME280;66345;42.694;23.346;2023-09-30T03:52:41;95919.94;;;14.29;64.04
77288;BME280;66345;42.694;23.346;2023-09-30T03:55:12;95917.47;;;14.34;63.86
77288;BME280;66345;42.694;23.346;2023-09-30T03:57:39;95926.97;;;14.36;63.68
77288;BME280;66345;42.694;23.346;2023-09-30T04:00:05;95924.28;;;14.43;63.16
77288;BME280;66345;42.694;23.346;2023-09-30T04:02:32;95924.69;;;14.40;63.35
77288;BME280;66345;42.694;23.346;2023-09-30T04:04:57;95926.13;;;14.36;63.41
77288;BME280;66345;42.694;23.346;2023-09-30T04:07:23;95926.53;;;14.33;63.38
77288;BME280;66345;42.694;23.346;2023-09-30T04:09:55;95933.28;;;14.35;62.77
77288;BME280;66345;42.694;23.346;2023-09-30T04:12:21;95931.47;;;14.36;63.15
77288;BME280;66345;42.694;23.346;2023-09-30T04:14:49;95926.94;;;14.30;61.84
77288;BME280;66345;42.694;23.346;2023-09-30T04:17:14;95925.28;;;14.29;61.26
77288;BME280;66345;42.694;23.346;2023-09-30T04:19:40;95933.88;;;14.18;62.17
77288;BME280;66345;42.694;23.346;2023-09-30T04:22:05;95938.00;;;14.27;62.00
77288;BME280;66345;42.694;23.346;2023-09-30T04:24:30;95930.84;;;14.34;61.74
77288;BME280;66345;42.694;23.346;2023-09-30T04:26:56;95935.75;;;14.24;61.45
77288;BME280;66345;42.694;23.346;2023-09-30T04:29:27;95943.50;;;14.19;61.68
77288;BME280;66345;42.694;23.346;2023-09-30T04:31:55;95947.63;;;14.14;61.85
77288;BME280;66345;42.694;23.346;2023-09-30T04:34:20;95944.91;;;14.08;61.88
77288;BME280;66345;42.694;23.346;2023-09-30T04:36:46;95948.22;;;14.10;61.68
77288;BME280;66345;42.694;23.346;2023-09-30T04:39:12;95946.56;;;14.09;61.62
77288;BME280;66345;42.694;23.346;2023-09-30T04:41:39;95956.66;;;14.13;61.42
77288;BME280;66345;42.694;23.346;2023-09-30T04:44:07;95949.84;;;14.11;61.66
77288;BME280;66345;42.694;23.346;2023-09-30T04:46:35;95956.41;;;14.08;61.64
77288;BME280;66345;42.694;23.346;2023-09-30T04:49:06;95950.16;;;13.88;62.79
77288;BME280;66345;42.694;23.346;2023-09-30T04:51:32;95958.56;;;13.85;62.74
77288;BME280;66345;42.694;23.346;2023-09-30T04:53:58;95956.75;;;13.92;62.39
77288;BME280;66345;42.694;23.346;2023-09-30T04:56:25;95965.78;;;13.98;62.46
77288;BME280;66345;42.694;23.346;2023-09-30T04:58:50;95968.91;;;14.01;61.73
77288;BME280;66345;42.694;23.346;2023-09-30T05:01:16;95967.63;;;13.97;62.01
77288;BME280;66345;42.694;23.346;2023-09-30T05:03:44;95962.31;;;13.97;62.32
77288;BME280;66345;42.694;23.346;2023-09-30T05:06:09;95961.47;;;13.97;62.79
77288;BME280;66345;42.694;23.346;2023-09-30T05:08:35;95963.13;;;13.98;62.76
77288;BME280;66345;42.694;23.346;2023-09-30T05:11:00;95959.63;;;13.91;62.78
77288;BME280;66345;42.694;23.346;2023-09-30T05:13:26;95980.16;;;13.97;63.30
77288;BME280;66345;42.694;23.346;2023-09-30T05:15:52;95973.66;;;14.06;63.02
77288;BME280;66345;42.694;23.346;2023-09-30T05:18:18;95976.91;;;14.01;63.61
77288;BME280;66345;42.694;23.346;2023-09-30T05:20:44;95966.91;;;14.16;62.55
77288;BME280;66345;42.694;23.346;2023-09-30T05:23:09;95970.44;;;14.24;62.99
77288;BME280;66345;42.694;23.346;2023-09-30T05:25:38;95978.44;;;14.24;63.43
77288;BME280;66345;42.694;23.346;2023-09-30T05:28:05;95964.00;;;14.66;61.90
77288;BME280;66345;42.694;23.346;2023-09-30T05:30:32;95971.50;;;14.97;60.52
77288;BME280;66345;42.694;23.346;2023-09-30T05:32:59;95968.81;;;15.10;59.85
77288;BME280;66345;42.694;23.346;2023-09-30T05:35:25;95980.31;;;15.11;60.12
77288;BME280;66345;42.694;23.346;2023-09-30T05:37:51;95972.53;;;15.22;58.53
77288;BME280;66345;42.694;23.346;2023-09-30T05:40:18;95973.94;;;15.25;58.41
77288;BME280;66345;42.694;23.346;2023-09-30T05:42:57;95980.13;;;15.45;58.04
77288;BME280;66345;42.694;23.346;2023-09-30T05:45:23;95980.31;;;15.64;57.57
77288;BME280;66345;42.694;23.346;2023-09-30T05:47:49;95985.44;;;15.92;57.41
77288;BME280;66345;42.694;23.346;2023-09-30T05:50:18;95977.63;;;16.93;54.02
77288;BME280;66345;42.694;23.346;2023-09-30T05:52:49;95970.59;;;17.48;52.13
77288;BME280;66345;42.694;23.346;2023-09-30T05:55:16;95975.47;;;18.20;50.02
77288;BME280;66345;42.694;23.346;2023-09-30T05:57:45;95973.00;;;18.37;49.12
77288;BME280;66345;42.694;23.346;2023-09-30T06:00:12;95972.22;;;18.96;47.56
77288;BME280;66345;42.694;23.346;2023-09-30T06:02:47;95967.81;;;19.79;45.17
77288;BME280;66345;42.694;23.346;2023-09-30T06:05:13;95969.28;;;20.45;43.21
77288;BME280;66345;42.694;23.346;2023-09-30T06:07:41;95972.72;;;20.97;41.66
77288;BME280;66345;42.694;23.346;2023-09-30T06:10:07;95979.19;;;21.75;40.12
77288;BME280;66345;42.694;23.346;2023-09-30T06:12:34;95980.69;;;22.22;39.86
77288;BME280;66345;42.694;23.346;2023-09-30T06:15:01;95986.13;;;22.65;38.52
77288;BME280;66345;42.694;23.346;2023-09-30T06:17:27;95979.84;;;23.63;36.87
77288;BME280;66345;42.694;23.346;2023-09-30T06:19:52;95985.84;;;23.11;36.88
77288;BME280;66345;42.694;23.346;2023-09-30T06:22:18;95981.56;;;23.74;36.62
77288;BME280;66345;42.694;23.346;2023-09-30T06:24:44;95989.31;;;23.60;36.12
77288;BME280;66345;42.694;23.346;2023-09-30T06:27:09;95987.47;;;25.18;33.17
77288;BME280;66345;42.694;23.346;2023-09-30T06:29:38;95986.97;;;25.67;31.96
77288;BME280;66345;42.694;23.346;2023-09-30T06:32:05;95991.88;;;25.60;31.99
77288;BME280;66345;42.694;23.346;2023-09-30T06:34:30;95991.06;;;26.05;31.29
77288;BME280;66345;42.694;23.346;2023-09-30T06:36:56;95997.97;;;26.77;30.17
77288;BME280;66345;42.694;23.346;2023-09-30T06:39:21;95986.97;;;25.52;31.71
77288;BME280;66345;42.694;23.346;2023-09-30T06:41:47;95999.16;;;26.56;29.70
77288;BME280;66345;42.694;23.346;2023-09-30T06:44:12;95984.94;;;26.64;29.61
77288;BME280;66345;42.694;23.346;2023-09-30T06:46:38;95983.06;;;28.27;27.47
77288;BME280;66345;42.694;23.346;2023-09-30T06:49:04;95977.78;;;29.26;25.50
77288;BME280;66345;42.694;23.346;2023-09-30T06:51:31;95994.84;;;28.22;27.46
77288;BME280;66345;42.694;23.346;2023-09-30T06:53:56;95998.97;;;27.07;29.34
77288;BME280;66345;42.694;23.346;2023-09-30T06:56:22;95998.25;;;28.62;26.77
77288;BME280;66345;42.694;23.346;2023-09-30T06:58:47;96000.16;;;28.08;27.08
77288;BME280;66345;42.694;23.346;2023-09-30T07:01:16;96009.06;;;27.51;28.04
77288;BME280;66345;42.694;23.346;2023-09-30T07:03:42;96012.00;;;27.59;27.36
77288;BME280;66345;42.694;23.346;2023-09-30T07:06:08;96001.06;;;29.42;24.70
77288;BME280;66345;42.694;23.346;2023-09-30T07:08:33;96002.13;;;29.98;24.46
77288;BME280;66345;42.694;23.346;2023-09-30T07:10:59;95994.63;;;30.36;24.44
77288;BME280;66345;42.694;23.346;2023-09-30T07:13:25;96009.25;;;29.05;25.94
77288;BME280;66345;42.694;23.346;2023-09-30T07:15:51;96009.06;;;27.90;27.65
77288;BME280;66345;42.694;23.346;2023-09-30T07:18:17;95997.06;;;29.16;25.85
77288;BME280;66345;42.694;23.346;2023-09-30T07:20:43;96002.81;;;29.14;25.81
77288;BME280;66345;42.694;23.346;2023-09-30T07:23:08;96002.94;;;29.98;25.10
77288;BME280;66345;42.694;23.346;2023-09-30T07:25:34;96005.69;;;30.91;23.75
77288;BME280;66345;42.694;23.346;2023-09-30T07:28:01;95992.66;;;32.90;21.56
77288;BME280;66345;42.694;23.346;2023-09-30T07:30:26;96000.41;;;33.79;20.59
77288;BME280;66345;42.694;23.346;2023-09-30T07:32:52;96006.22;;;31.79;21.57
77288;BME280;66345;42.694;23.346;2023-09-30T07:35:17;96002.97;;;31.77;21.88
77288;BME280;66345;42.694;23.346;2023-09-30T07:37:43;96004.50;;;33.16;20.17
77288;BME280;66345;42.694;23.346;2023-09-30T07:40:09;96002.06;;;31.32;23.22
77288;BME280;66345;42.694;23.346;2023-09-30T07:42:38;96014.97;;;31.04;22.61
77288;BME280;66345;42.694;23.346;2023-09-30T07:45:04;95997.56;;;33.19;20.42
77288;BME280;66345;42.694;23.346;2023-09-30T07:47:30;96007.13;;;31.52;22.01
77288;BME280;66345;42.694;23.346;2023-09-30T07:50:00;96005.47;;;31.51;21.57
77288;BME280;66345;42.694;23.346;2023-09-30T07:52:25;95998.91;;;34.08;19.50
77288;BME280;66345;42.694;23.346;2023-09-30T07:54:51;96003.16;;;33.97;18.72
77288;BME280;66345;42.694;23.346;2023-09-30T07:57:16;95998.25;;;34.92;18.28
77288;BME280;66345;42.694;23.346;2023-09-30T07:59:42;96005.44;;;32.63;20.82
77288;BME280;66345;42.694;23.346;2023-09-30T08:02:07;96002.72;;;35.56;18.03
77288;BME280;66345;42.694;23.346;2023-09-30T08:04:33;95996.91;;;33.04;19.98
77288;BME280;66345;42.694;23.346;2023-09-30T08:06:59;95994.19;;;33.30;19.66
77288;BME280;66345;42.694;23.346;2023-09-30T08:09:24;95995.94;;;34.94;17.83
77288;BME280;66345;42.694;23.346;2023-09-30T08:11:52;95997.97;;;33.43;18.91
77288;BME280;66345;42.694;23.346;2023-09-30T08:14:18;96000.09;;;33.63;18.59
77288;BME280;66345;42.694;23.346;2023-09-30T08:16:44;96000.03;;;35.89;16.99
77288;BME280;66345;42.694;23.346;2023-09-30T08:19:09;95999.38;;;36.25;16.29
77288;BME280;66345;42.694;23.346;2023-09-30T08:21:35;95998.38;;;34.96;17.38
77288;BME280;66345;42.694;23.346;2023-09-30T08:24:02;95997.44;;;31.91;20.36
77288;BME280;66345;42.694;23.346;2023-09-30T08:26:27;96004.28;;;31.80;21.06
77288;BME280;66345;42.694;23.346;2023-09-30T08:28:53;95987.91;;;32.19;20.76
77288;BME280;66345;42.694;23.346;2023-09-30T08:31:18;95985.13;;;33.21;19.54
77288;BME280;66345;42.694;23.346;2023-09-30T08:33:44;95988.34;;;33.23;19.23
77288;BME280;66345;42.694;23.346;2023-09-30T08:36:11;95987.69;;;35.66;17.18
77288;BME280;66345;42.694;23.346;2023-09-30T08:38:38;95994.78;;;35.54;18.04
77288;BME280;66345;42.694;23.346;2023-09-30T08:41:04;95987.03;;;36.23;17.14
77288;BME280;66345;42.694;23.346;2023-09-30T08:43:30;95993.69;;;35.47;17.23
77288;BME280;66345;42.694;23.346;2023-09-30T08:45:58;95977.09;;;35.89;16.56
77288;BME280;66345;42.694;23.346;2023-09-30T08:48:26;95983.28;;;35.52;17.31
77288;BME280;66345;42.694;23.346;2023-09-30T08:50:53;95974.91;;;36.73;15.90
77288;BME280;66345;42.694;23.346;2023-09-30T08:53:20;95974.97;;;36.97;15.96
77288;BME280;66345;42.694;23.346;2023-09-30T08:55:46;95966.72;;;38.18;14.06
77288;BME280;66345;42.694;23.346;2023-09-30T08:58:12;95977.97;;;37.04;15.62
77288;BME280;66345;42.694;23.346;2023-09-30T09:00:39;95976.25;;;35.55;16.23
77288;BME280;66345;42.694;23.346;2023-09-30T09:03:07;95973.69;;;36.82;15.93
77288;BME280;66345;42.694;23.346;2023-09-30T09:05:33;95967.34;;;36.94;14.63
77288;BME280;66345;42.694;23.346;2023-09-30T09:07:58;95972.31;;;35.35;15.28
77288;BME280;66345;42.694;23.346;2023-09-30T09:10:24;95964.13;;;35.89;14.48
77288;BME280;66345;42.694;23.346;2023-09-30T09:12:58;95958.81;;;36.99;14.24
77288;BME280;66345;42.694;23.346;2023-09-30T09:15:28;95959.31;;;37.54;13.11
77288;BME280;66345;42.694;23.346;2023-09-30T09:17:54;95953.16;;;36.95;13.60
77288;BME280;66345;42.694;23.346;2023-09-30T09:20:22;95951.91;;;38.26;12.69
77288;BME280;66345;42.694;23.346;2023-09-30T09:22:49;95958.72;;;38.00;12.11
77288;BME280;66345;42.694;23.346;2023-09-30T09:25:19;95948.06;;;38.30;12.92
77288;BME280;66345;42.694;23.346;2023-09-30T09:27:47;95946.75;;;38.12;12.78
77288;BME280;66345;42.694;23.346;2023-09-30T09:33:04;95950.09;;;35.94;14.89
77288;BME280;66345;42.694;23.346;2023-09-30T09:35:31;95949.91;;;35.99;14.65
77288;BME280;66345;42.694;23.346;2023-09-30T09:38:06;95944.97;;;36.50;13.90
77288;BME280;66345;42.694;23.346;2023-09-30T09:40:33;95948.66;;;36.66;14.62
77288;BME280;66345;42.694;23.346;2023-09-30T09:43:00;95949.91;;;35.16;16.23
77288;BME280;66345;42.694;23.346;2023-09-30T09:45:32;95939.22;;;34.76;15.42
77288;BME280;66345;42.694;23.346;2023-09-30T09:47:58;95933.41;;;36.36;14.62
77288;BME280;66345;42.694;23.346;2023-09-30T09:50:24;95928.81;;;36.64;14.01
77288;BME280;66345;42.694;23.346;2023-09-30T09:52:52;95932.41;;;34.73;15.89
77288;BME280;66345;42.694;23.346;2023-09-30T09:55:19;95938.41;;;34.29;16.67
77288;BME280;66345;42.694;23.346;2023-09-30T09:57:46;95942.22;;;34.54;15.43
77288;BME280;66345;42.694;23.346;2023-09-30T10:00:16;95933.50;;;33.96;16.19
77288;BME280;66345;42.694;23.346;2023-09-30T10:02:44;95936.38;;;34.08;16.05
77288;BME280;66345;42.694;23.346;2023-09-30T10:05:12;95932.88;;;34.37;16.02
77288;BME280;66345;42.694;23.346;2023-09-30T10:07:42;95920.06;;;35.72;14.58
77288;BME280;66345;42.694;23.346;2023-09-30T10:10:13;95910.63;;;31.59;18.45
77288;BME280;66345;42.694;23.346;2023-09-30T10:12:40;95922.53;;;33.44;17.16
77288;BME280;66345;42.694;23.346;2023-09-30T10:20:30;95897.88;;;35.47;15.15
77288;BME280;66345;42.694;23.346;2023-09-30T10:25:44;95906.19;;;31.27;17.59
77288;BME280;66345;42.694;23.346;2023-09-30T10:31:17;95908.25;;;31.07;18.03
77288;BME280;66345;42.694;23.346;2023-09-30T10:36:36;95897.16;;;29.42;19.80
77288;BME280;66345;42.694;23.346;2023-09-30T10:39:04;95903.41;;;30.08;18.90
77288;BME280;66345;42.694;23.346;2023-09-30T10:44:39;95894.13;;;28.20;21.04
77288;BME280;66345;42.694;23.346;2023-09-30T10:49:49;95890.34;;;26.85;21.87
77288;BME280;66345;42.694;23.346;2023-09-30T10:52:22;95889.00;;;26.82;22.84
77288;BME280;66345;42.694;23.346;2023-09-30T10:54:49;95891.34;;;26.55;23.08
77288;BME280;66345;42.694;23.346;2023-09-30T10:57:26;95895.72;;;26.51;23.41
77288;BME280;66345;42.694;23.346;2023-09-30T11:00:09;95894.09;;;26.45;23.15
77288;BME280;66345;42.694;23.346;2023-09-30T11:02:47;95895.03;;;26.15;23.20
77288;BME280;66345;42.694;23.346;2023-09-30T11:05:13;95884.19;;;25.94;23.32
77288;BME280;66345;42.694;23.346;2023-09-30T11:07:40;95894.56;;;25.87;23.19
77288;BME280;66345;42.694;23.346;2023-09-30T11:10:07;95885.03;;;25.64;23.39
77288;BME280;66345;42.694;23.346;2023-09-30T11:12:33;95882.06;;;25.56;23.70
77288;BME280;66345;42.694;23.346;2023-09-30T11:15:00;95871.75;;;25.37;23.92
77288;BME280;66345;42.694;23.346;2023-09-30T11:17:26;95876.91;;;25.34;24.24
77288;BME280;66345;42.694;23.346;2023-09-30T11:19:52;95880.44;;;25.44;24.22
77288;BME280;66345;42.694;23.346;2023-09-30T11:22:17;95874.19;;;25.44;23.88
77288;BME280;66345;42.694;23.346;2023-09-30T11:24:43;95886.16;;;25.17;24.52
77288;BME280;66345;42.694;23.346;2023-09-30T11:27:11;95853.78;;;24.90;24.69
77288;BME280;66345;42.694;23.346;2023-09-30T11:29:36;95866.59;;;25.10;25.19
77288;BME280;66345;42.694;23.346;2023-09-30T11:32:02;95859.25;;;25.26;24.98
77288;BME280;66345;42.694;23.346;2023-09-30T11:34:33;95870.13;;;25.41;24.93
77288;BME280;66345;42.694;23.346;2023-09-30T11:37:00;95852.16;;;25.45;25.06
77288;BME280;66345;42.694;23.346;2023-09-30T11:39:28;95866.59;;;25.41;25.42
77288;BME280;66345;42.694;23.346;2023-09-30T11:41:54;95860.59;;;25.29;24.87
77288;BME280;66345;42.694;23.346;2023-09-30T11:44:22;95858.44;;;25.15;25.17
77288;BME280;66345;42.694;23.346;2023-09-30T11:46:57;95854.91;;;25.10;25.75
77288;BME280;66345;42.694;23.346;2023-09-30T11:49:31;95858.44;;;25.05;25.87
77288;BME280;66345;42.694;23.346;2023-09-30T11:51:59;95838.31;;;24.91;25.93
77288;BME280;66345;42.694;23.346;2023-09-30T11:54:37;95840.47;;;24.79;26.13
77288;BME280;66345;42.694;23.346;2023-09-30T11:57:06;95836.38;;;24.66;26.56
77288;BME280;66345;42.694;23.346;2023-09-30T11:59:35;95835.56;;;24.86;26.38
77288;BME280;66345;42.694;23.346;2023-09-30T12:02:07;95829.94;;;25.18;26.43
77288;BME280;66345;42.694;23.346;2023-09-30T12:04:34;95835.38;;;25.18;26.11
77288;BME280;66345;42.694;23.346;2023-09-30T12:07:00;95826.38;;;25.23;26.11
77288;BME280;66345;42.694;23.346;2023-09-30T12:09:26;95825.81;;;25.31;25.83
77288;BME280;66345;42.694;23.346;2023-09-30T12:11:52;95829.63;;;25.35;25.24
77288;BME280;66345;42.694;23.346;2023-09-30T12:14:18;95826.38;;;24.97;25.80
77288;BME280;66345;42.694;23.346;2023-09-30T12:16:44;95818.75;;;24.99;25.73
77288;BME280;66345;42.694;23.346;2023-09-30T12:19:11;95819.06;;;25.13;25.89
77288;BME280;66345;42.694;23.346;2023-09-30T12:21:39;95807.06;;;24.83;25.71
77288;BME280;66345;42.694;23.346;2023-09-30T12:24:06;95818.50;;;24.96;25.63
77288;BME280;66345;42.694;23.346;2023-09-30T12:26:33;95808.72;;;24.95;25.49
77288;BME280;66345;42.694;23.346;2023-09-30T12:28:59;95804.63;;;24.97;25.45
77288;BME280;66345;42.694;23.346;2023-09-30T12:31:24;95801.41;;;25.05;25.61
77288;BME280;66345;42.694;23.346;2023-09-30T12:33:50;95803.53;;;24.78;25.68
77288;BME280;66345;42.694;23.346;2023-09-30T12:36:18;95807.06;;;24.68;25.69
77288;BME280;66345;42.694;23.346;2023-09-30T12:38:43;95807.88;;;24.58;26.24
77288;BME280;66345;42.694;23.346;2023-09-30T12:41:10;95800.84;;;24.73;25.92
77288;BME280;66345;42.694;23.346;2023-09-30T12:43:36;95799.75;;;24.79;25.94
77288;BME280;66345;42.694;23.346;2023-09-30T12:46:01;95799.72;;;24.69;25.47
77288;BME280;66345;42.694;23.346;2023-09-30T12:48:27;95795.94;;;24.59;26.33
77288;BME280;66345;42.694;23.346;2023-09-30T12:50:52;95792.13;;;24.71;26.18
77288;BME280;66345;42.694;23.346;2023-09-30T12:53:18;95790.22;;;24.61;26.08
77288;BME280;66345;42.694;23.346;2023-09-30T12:55:43;95783.72;;;24.52;25.93
77288;BME280;66345;42.694;23.346;2023-09-30T12:58:09;95787.78;;;24.54;26.44
77288;BME280;66345;42.694;23.346;2023-09-30T13:00:34;95778.56;;;24.50;26.42
77288;BME280;66345;42.694;23.346;2023-09-30T13:03:02;95779.09;;;24.62;26.31
77288;BME280;66345;42.694;23.346;2023-09-30T13:05:27;95783.19;;;24.75;25.98
77288;BME280;66345;42.694;23.346;2023-09-30T13:07:55;95771.25;;;24.66;26.11
77288;BME280;66345;42.694;23.346;2023-09-30T13:10:21;95775.84;;;24.71;26.62